Time;durP1;ratioP1;P1;durP2;ratioP2;P2;SDS_P1;SDS_P2;PMS_P1;PMS_P2;Temp;Humidity;BMP_temperature;BMP_pressure;BME280_temperature;BME280_humidity;BME280_pressure;Samples;Min_cycle;Max_cycle;Signal;HPM_P1;HPM_P2
2021/01/11 00:00:22;;;;;;;86.83;27.47;;;-1.60;99.90;;;;;;4936904;28;20628;-67
2021/01/11 00:02:49;;;;;;;77.10;26.20;;;-1.60;99.90;;;;;;4933430;29;20202;-67
2021/01/11 00:05:16;;;;;;;74.07;24.43;;;-1.60;99.90;;;;;;4952595;29;20225;-67
2021/01/11 00:07:43;;;;;;;63.60;21.17;;;-1.60;99.90;;;;;;4952764;29;20231;-67
2021/01/11 00:10:11;;;;;;;61.90;21.33;;;-1.50;99.90;;;;;;4933400;29;20205;-67
2021/01/11 00:12:38;;;;;;;58.60;19.23;;;-1.70;99.90;;;;;;4949888;29;20679;-68
2021/01/11 00:15:08;;;;;;;59.73;19.33;;;-1.70;99.90;;;;;;4952407;28;20213;-67
2021/01/11 00:17:35;;;;;;;59.93;20.13;;;-1.70;99.90;;;;;;4952781;29;20268;-68
2021/01/11 00:20:01;;;;;;;58.60;20.70;;;-1.70;99.90;;;;;;4958209;28;20205;-67
2021/01/11 00:22:28;;;;;;;52.93;19.10;;;-1.70;99.90;;;;;;4956596;29;20209;-67
2021/01/11 00:24:55;;;;;;;50.70;18.40;;;-1.70;99.90;;;;;;4956856;29;20706;-68
2021/01/11 00:27:21;;;;;;;48.73;17.20;;;-1.00;99.90;;;;;;4923152;29;20205;-68
2021/01/11 00:29:48;;;;;;;61.77;19.93;;;-1.70;99.90;;;;;;4920600;29;20214;-68
2021/01/11 00:32:15;;;;;;;79.43;22.67;;;-1.50;99.90;;;;;;4934745;29;20217;-66
2021/01/11 00:34:42;;;;;;;100.00;28.03;;;-1.70;99.90;;;;;;4937597;29;20210;-68
2021/01/11 00:37:10;;;;;;;125.47;30.83;;;-1.60;99.90;;;;;;4920730;29;20685;-67
2021/01/11 00:39:37;;;;;;;134.17;32.17;;;-1.60;99.90;;;;;;4922479;29;20225;-67
2021/01/11 00:42:03;;;;;;;128.90;31.07;;;-1.60;99.90;;;;;;4969738;28;20215;-68
2021/01/11 00:44:30;;;;;;;111.07;29.83;;;-1.60;99.90;;;;;;4955792;29;20255;-68
2021/01/11 00:46:59;;;;;;;95.37;27.10;;;-1.60;99.90;;;;;;4975495;28;20228;-68
2021/01/11 00:49:28;;;;;;;92.17;25.40;;;-1.50;99.90;;;;;;4975926;28;20294;-68
2021/01/11 00:51:55;;;;;;;90.10;25.97;;;-1.50;99.90;;;;;;4986846;28;20203;-67
2021/01/11 00:54:23;;;;;;;66.73;22.83;;;-1.40;99.90;;;;;;5014019;28;20233;-68
2021/01/11 00:56:53;;;;;;;80.53;24.87;;;-1.30;99.90;;;;;;4998152;28;20684;-68
2021/01/11 00:59:39;;;;;;;86.20;28.33;;;-0.50;99.90;;;;;;5014484;28;20290;-67
2021/01/11 01:02:07;;;;;;;90.07;30.00;;;-1.20;99.90;;;;;;5013986;28;20322;-67
2021/01/11 01:04:34;;;;;;;79.53;28.47;;;-1.20;99.90;;;;;;4948190;29;20687;-68
2021/01/11 01:07:02;;;;;;;83.17;27.27;;;-1.10;99.90;;;;;;4937310;29;20766;-67
2021/01/11 01:09:29;;;;;;;80.33;26.47;;;-1.10;99.90;;;;;;4955913;29;20219;-68
2021/01/11 01:11:56;;;;;;;68.93;25.43;;;-1.00;99.90;;;;;;4936752;29;20723;-66
2021/01/11 01:14:23;;;;;;;71.67;25.17;;;-0.20;99.90;;;;;;4918837;29;20206;-68
2021/01/11 01:16:49;;;;;;;65.93;24.30;;;-1.00;99.90;;;;;;4955503;28;20207;-68
2021/01/11 01:19:16;;;;;;;78.70;26.43;;;-0.90;99.90;;;;;;4955447;29;20691;-68
2021/01/11 01:21:43;;;;;;;68.43;24.43;;;-0.90;99.90;;;;;;4955384;29;20217;-68
2021/01/11 01:24:10;;;;;;;76.03;25.33;;;-0.90;99.90;;;;;;4955496;29;20255;-67
2021/01/11 01:26:37;;;;;;;70.23;25.10;;;-0.90;99.90;;;;;;4955082;29;20228;-68
2021/01/11 01:29:04;;;;;;;69.03;24.73;;;-0.90;99.90;;;;;;4955137;29;20212;-68
2021/01/11 01:31:30;;;;;;;70.60;25.97;;;-0.80;99.90;;;;;;4954230;28;20589;-68
2021/01/11 01:33:57;;;;;;;75.37;25.83;;;-1.00;99.90;;;;;;4972002;28;20655;-68
2021/01/11 01:36:23;;;;;;;73.40;25.57;;;-1.10;99.90;;;;;;4974866;28;20204;-67
2021/01/11 01:38:51;;;;;;;80.27;26.20;;;-1.20;99.90;;;;;;4974425;28;20243;-67
2021/01/11 01:41:18;;;;;;;70.50;24.23;;;-1.20;99.90;;;;;;4975084;28;20216;-67
2021/01/11 01:43:45;;;;;;;66.63;24.40;;;-1.30;99.90;;;;;;4975108;28;20208;-67
2021/01/11 01:46:15;;;;;;;67.90;23.90;;;-1.40;99.90;;;;;;4990727;28;20350;-67
2021/01/11 01:48:42;;;;;;;72.27;23.63;;;-1.60;99.90;;;;;;4993588;28;20582;-67
2021/01/11 01:51:10;;;;;;;73.67;25.20;;;-1.70;99.90;;;;;;4955291;28;20225;-67
2021/01/11 01:53:36;;;;;;;68.40;23.73;;;-1.80;99.90;;;;;;4954844;29;20248;-67
2021/01/11 01:56:05;;;;;;;63.00;21.87;;;-1.90;99.90;;;;;;4954509;28;20656;-67
2021/01/11 01:58:32;;;;;;;63.50;22.03;;;-2.00;99.90;;;;;;4990892;28;20191;-67
2021/01/11 02:00:59;;;;;;;66.80;22.57;;;-1.80;99.90;;;;;;4973606;28;20204;-67
2021/01/11 02:03:26;;;;;;;68.90;24.10;;;-2.20;99.90;;;;;;4973678;28;20251;-67
2021/01/11 02:05:52;;;;;;;67.53;23.73;;;-2.20;99.90;;;;;;4977910;28;20278;-67
2021/01/11 02:08:25;;;;;;;64.13;22.30;;;-2.30;99.90;;;;;;4993607;28;20200;-67
2021/01/11 02:11:03;;;;;;;64.17;22.20;;;-2.40;99.90;;;;;;4992988;28;20548;-67
2021/01/11 02:13:47;;;;;;;59.87;21.97;;;-2.40;99.90;;;;;;4954258;29;20364;-67
2021/01/11 02:16:23;;;;;;;57.87;21.10;;;-2.50;99.90;;;;;;4953958;29;20645;-67
2021/01/11 02:18:56;;;;;;;59.43;20.97;;;-2.60;99.90;;;;;;4954254;29;20211;-67
2021/01/11 02:22:00;;;;;;;73.27;23.07;;;-2.60;99.90;;;;;;4961456;28;20200;-67
2021/01/11 02:25:02;;;;;;;68.23;22.77;;;-2.70;99.90;;;;;;4973653;28;20220;-67
2021/01/11 02:27:42;;;;;;;67.70;22.93;;;-2.80;99.90;;;;;;4865898;29;20559;-67
2021/01/11 02:30:13;;;;;;;76.33;25.03;;;-2.80;99.90;;;;;;4871488;29;20310;-67
2021/01/11 02:32:46;;;;;;;65.97;23.87;;;-2.80;99.90;;;;;;4873748;29;20312;-67
2021/01/11 02:35:14;;;;;;;56.67;21.00;;;-2.90;99.90;;;;;;4893887;29;20211;-67
2021/01/11 02:37:41;;;;;;;87.33;29.20;;;-2.90;99.90;;;;;;4911843;29;20246;-67
2021/01/11 02:40:10;;;;;;;64.93;24.27;;;-3.00;99.90;;;;;;4899927;29;20237;-67
2021/01/11 02:42:37;;;;;;;71.87;25.33;;;-3.00;99.90;;;;;;4915527;29;20343;-68
2021/01/11 02:45:06;;;;;;;75.63;25.97;;;-3.00;99.90;;;;;;4915370;29;20700;-68
2021/01/11 02:47:59;;;;;;;88.43;30.90;;;-3.00;99.90;;;;;;4896640;29;20261;-68
2021/01/11 02:50:26;;;;;;;85.33;27.47;;;-3.00;99.90;;;;;;4907535;29;20206;-68
2021/01/11 02:53:06;;;;;;;84.00;29.47;;;-3.00;99.90;;;;;;4940644;28;20211;-67
2021/01/11 02:55:48;;;;;;;89.33;29.93;;;-3.00;99.90;;;;;;4973055;28;20258;-67
2021/01/11 02:58:23;;;;;;;82.03;29.43;;;-2.90;99.90;;;;;;4988873;28;20210;-67
2021/01/11 03:00:53;;;;;;;82.73;28.53;;;-2.90;99.90;;;;;;4992248;28;20251;-68
2021/01/11 03:03:23;;;;;;;74.40;27.00;;;-2.80;99.90;;;;;;4998645;28;20204;-68
2021/01/11 03:05:51;;;;;;;74.50;27.03;;;-2.70;99.90;;;;;;5051771;28;20251;-67
2021/01/11 03:08:23;;;;;;;104.80;37.20;;;-2.70;99.90;;;;;;5051969;28;20196;-67
2021/01/11 03:10:51;;;;;;;104.07;36.77;;;-2.60;99.90;;;;;;5051703;28;20722;-68
2021/01/11 03:13:18;;;;;;;105.40;37.13;;;-2.60;99.90;;;;;;5011743;28;20294;-67
2021/01/11 03:15:45;;;;;;;108.10;36.37;;;-2.60;99.90;;;;;;4997654;28;20208;-67
2021/01/11 03:18:12;;;;;;;98.27;32.90;;;-2.50;99.90;;;;;;4956590;28;20214;-68
2021/01/11 03:20:39;;;;;;;92.40;31.00;;;-2.60;99.90;;;;;;4972712;28;20287;-68
2021/01/11 03:23:06;;;;;;;92.40;31.60;;;-2.50;99.90;;;;;;5012212;28;20209;-68
2021/01/11 03:25:33;;;;;;;85.20;29.63;;;-2.50;99.90;;;;;;5025624;28;20692;-68
2021/01/11 03:27:59;;;;;;;92.13;30.73;;;-2.40;99.90;;;;;;5051462;28;20202;-67
2021/01/11 03:30:26;;;;;;;91.53;33.17;;;-2.30;99.90;;;;;;5011578;28;20230;-68
2021/01/11 03:32:53;;;;;;;88.20;30.93;;;-2.20;99.90;;;;;;5012005;28;20623;-68
2021/01/11 03:35:20;;;;;;;99.17;33.70;;;-2.10;99.90;;;;;;4992211;28;20207;-67
2021/01/11 03:37:47;;;;;;;91.07;32.63;;;-2.10;99.90;;;;;;4972015;28;20224;-68
2021/01/11 03:40:14;;;;;;;106.67;35.23;;;-2.00;99.90;;;;;;4953113;29;20679;-67
2021/01/11 03:42:42;;;;;;;120.67;38.70;;;-1.90;99.90;;;;;;4972866;28;20567;-68
2021/01/11 03:45:11;;;;;;;109.83;37.07;;;-1.80;99.90;;;;;;4956112;28;20233;-68
2021/01/11 03:47:38;;;;;;;95.20;33.80;;;-1.80;99.90;;;;;;4953158;29;20209;-68
2021/01/11 03:50:06;;;;;;;92.67;33.53;;;-1.70;99.90;;;;;;4972487;28;20211;-68
2021/01/11 03:52:34;;;;;;;109.77;37.83;;;-1.60;99.90;;;;;;4972493;28;20212;-67
2021/01/11 03:55:02;;;;;;;105.90;37.90;;;-1.60;99.90;;;;;;4958580;28;20209;-68
2021/01/11 03:57:30;;;;;;;98.77;37.43;;;-1.60;99.90;;;;;;4924560;29;20213;-68
2021/01/11 03:59:56;;;;;;;102.37;37.27;;;-1.40;99.90;;;;;;4988751;28;20294;-68
2021/01/11 04:02:23;;;;;;;112.23;38.10;;;-0.80;99.90;;;;;;4974334;28;20204;-67
2021/01/11 04:04:50;;;;;;;112.83;39.03;;;-1.40;99.90;;;;;;4976102;28;20232;-67
2021/01/11 04:07:16;;;;;;;98.70;36.37;;;-1.40;99.90;;;;;;4976459;28;20204;-68
2021/01/11 04:09:43;;;;;;;99.10;34.20;;;-1.40;99.90;;;;;;5010334;28;20203;-68
2021/01/11 04:12:11;;;;;;;92.27;32.90;;;-1.00;99.90;;;;;;5012615;28;20265;-68
2021/01/11 04:14:38;;;;;;;112.87;37.57;;;-1.30;99.90;;;;;;5014911;28;20331;-68
2021/01/11 04:17:04;;;;;;;109.47;37.83;;;-1.20;99.90;;;;;;5014906;28;20257;-67
2021/01/11 04:19:31;;;;;;;114.23;38.03;;;-1.20;99.90;;;;;;5035143;28;20202;-68
2021/01/11 04:21:58;;;;;;;118.67;39.90;;;-0.90;99.90;;;;;;5051552;28;20210;-68
2021/01/11 04:24:25;;;;;;;118.87;38.10;;;-1.20;99.90;;;;;;5054703;28;20222;-68
2021/01/11 04:26:51;;;;;;;112.87;36.07;;;-1.20;99.90;;;;;;5014604;28;20199;-67
2021/01/11 04:29:19;;;;;;;103.07;36.00;;;-1.20;99.90;;;;;;5034549;28;20202;-68
2021/01/11 04:31:47;;;;;;;108.73;36.90;;;-1.10;99.90;;;;;;5034748;28;20202;-67
2021/01/11 04:34:14;;;;;;;116.43;39.80;;;-0.90;99.90;;;;;;5068070;28;20197;-68
2021/01/11 04:36:42;;;;;;;113.73;38.27;;;-1.10;99.90;;;;;;5014005;28;20211;-68
2021/01/11 04:39:08;;;;;;;119.37;40.93;;;-1.10;99.90;;;;;;4995249;28;20212;-68
2021/01/11 04:41:40;;;;;;;131.17;41.30;;;-1.20;99.90;;;;;;4994611;28;20232;-68
2021/01/11 04:44:08;;;;;;;111.70;37.30;;;-1.10;99.90;;;;;;5011858;28;20195;-68
2021/01/11 04:46:36;;;;;;;127.10;40.23;;;-1.10;99.90;;;;;;5014440;28;20194;-68
2021/01/11 04:49:02;;;;;;;123.27;40.30;;;-1.10;99.90;;;;;;5014162;28;20210;-68
2021/01/11 04:51:32;;;;;;;134.87;42.17;;;-1.20;99.90;;;;;;4996721;28;20208;-68
2021/01/11 04:54:00;;;;;;;135.93;43.47;;;-1.20;99.90;;;;;;4994388;28;20299;-68
2021/01/11 04:56:27;;;;;;;140.13;44.67;;;-1.20;99.90;;;;;;4994298;28;20293;-68
2021/01/11 04:58:56;;;;;;;143.80;44.63;;;-1.20;99.90;;;;;;4994308;28;20215;-68
2021/01/11 05:01:24;;;;;;;137.40;43.87;;;-1.20;99.90;;;;;;4976132;28;20196;-68
2021/01/11 05:03:52;;;;;;;141.33;45.60;;;-1.20;99.90;;;;;;4986432;28;20673;-68
2021/01/11 05:06:19;;;;;;;138.13;42.73;;;-1.10;99.90;;;;;;5013684;28;20203;-68
2021/01/11 05:08:46;;;;;;;138.30;41.40;;;-1.10;99.90;;;;;;5013872;28;20246;-68
2021/01/11 05:11:13;;;;;;;110.00;37.10;;;-1.10;99.90;;;;;;5015713;28;20237;-68
2021/01/11 05:13:41;;;;;;;115.37;36.43;;;-1.00;99.90;;;;;;5070975;28;20553;-67
2021/01/11 05:16:11;;;;;;;122.23;37.00;;;-1.00;99.90;;;;;;5073496;28;20209;-68
2021/01/11 05:18:38;;;;;;;119.57;39.00;;;-1.00;99.90;;;;;;5053915;28;20217;-68
2021/01/11 05:21:05;;;;;;;116.17;37.93;;;-0.90;99.90;;;;;;5053717;28;20208;-67
2021/01/11 05:23:36;;;;;;;115.33;37.77;;;-0.90;99.90;;;;;;5053177;28;20260;-67
2021/01/11 05:26:14;;;;;;;130.67;41.00;;;-0.90;99.90;;;;;;5036289;28;20221;-67
2021/01/11 05:28:41;;;;;;;128.47;41.50;;;-0.90;99.90;;;;;;5036605;28;20198;-68
2021/01/11 05:31:08;;;;;;;120.83;38.93;;;-0.90;99.90;;;;;;5053227;28;20575;-68
2021/01/11 05:33:35;;;;;;;118.37;39.43;;;-0.90;99.90;;;;;;5053664;28;20205;-67
2021/01/11 05:36:08;;;;;;;115.17;36.30;;;-0.80;99.90;;;;;;5036672;28;20259;-68
2021/01/11 05:38:36;;;;;;;121.83;38.40;;;-0.80;99.90;;;;;;5036275;28;20227;-68
2021/01/11 05:41:17;;;;;;;154.83;45.40;;;-0.70;99.90;;;;;;5032975;28;20209;-68
2021/01/11 05:43:45;;;;;;;141.43;41.47;;;-0.50;99.90;;;;;;5032815;28;20191;-68
2021/01/11 05:46:27;;;;;;;115.17;38.47;;;-0.90;99.90;;;;;;5032894;28;20307;-67
2021/01/11 05:48:58;;;;;;;131.17;41.93;;;-0.90;99.90;;;;;;5029460;28;20214;-67
2021/01/11 05:51:26;;;;;;;133.13;43.27;;;-0.80;99.90;;;;;;5012931;28;20230;-68
2021/01/11 05:53:53;;;;;;;135.30;41.17;;;-0.80;99.90;;;;;;5013382;28;20207;-68
2021/01/11 05:56:20;;;;;;;106.80;35.47;;;-0.80;99.90;;;;;;5013196;28;20207;-67
2021/01/11 05:59:05;;;;;;;110.70;38.43;;;-0.40;99.90;;;;;;5013109;28;20207;-68
2021/01/11 06:01:33;;;;;;;135.00;40.77;;;-0.70;99.90;;;;;;4993300;28;20203;-68
2021/01/11 06:04:00;;;;;;;119.13;37.20;;;-0.70;99.90;;;;;;4959285;28;20205;-68
2021/01/11 06:06:28;;;;;;;128.13;39.87;;;-0.70;99.90;;;;;;4993435;28;20303;-68
2021/01/11 06:08:56;;;;;;;117.53;39.10;;;-0.70;99.90;;;;;;4993210;28;20199;-68
2021/01/11 06:11:25;;;;;;;116.40;34.97;;;-0.80;99.90;;;;;;4997102;28;20281;-68
2021/01/11 06:13:53;;;;;;;105.57;36.33;;;-0.70;99.90;;;;;;4995573;28;20207;-68
2021/01/11 06:16:20;;;;;;;129.40;41.03;;;-0.70;99.90;;;;;;4989917;28;20192;-68
2021/01/11 06:18:50;;;;;;;124.53;40.23;;;-0.60;99.90;;;;;;4973680;28;20225;-68
2021/01/11 06:21:17;;;;;;;124.63;40.63;;;-0.70;99.90;;;;;;4973628;28;20252;-68
2021/01/11 06:23:45;;;;;;;130.03;42.00;;;-0.70;99.90;;;;;;4973448;28;20760;-68
2021/01/11 06:26:31;;;;;;;140.40;44.33;;;-0.70;99.90;;;;;;4973289;28;20224;-68
2021/01/11 06:28:58;;;;;;;148.00;48.13;;;-0.70;99.90;;;;;;4973014;28;20300;-68
2021/01/11 06:31:29;;;;;;;145.77;48.17;;;-0.70;99.90;;;;;;4954051;29;20258;-67
2021/01/11 06:33:56;;;;;;;161.30;52.73;;;-0.80;99.90;;;;;;4992401;28;20192;-67
2021/01/11 06:36:25;;;;;;;162.80;53.97;;;-0.10;99.90;;;;;;4992548;28;20196;-68
2021/01/11 06:38:54;;;;;;;145.27;47.60;;;-0.90;99.90;;;;;;4992764;28;20274;-68
2021/01/11 06:41:22;;;;;;;146.00;48.43;;;-0.90;99.90;;;;;;4992899;28;20299;-67
2021/01/11 06:43:50;;;;;;;149.20;48.63;;;-0.90;99.90;;;;;;4992986;28;20216;-67
2021/01/11 06:46:45;;;;;;;160.97;51.27;;;-1.00;99.90;;;;;;4993640;28;20231;-68
2021/01/11 06:49:25;;;;;;;155.43;50.80;;;-1.00;99.90;;;;;;5015235;28;20199;-68
2021/01/11 06:52:09;;;;;;;148.00;48.13;;;-1.00;99.90;;;;;;4998277;28;20207;-68
2021/01/11 06:54:43;;;;;;;126.57;43.80;;;-1.10;99.90;;;;;;4992537;28;20200;-67
2021/01/11 06:57:16;;;;;;;117.77;38.70;;;-1.00;99.90;;;;;;5012499;28;20209;-67
2021/01/11 06:59:46;;;;;;;133.13;43.40;;;-1.00;99.90;;;;;;5020101;28;20237;-67
2021/01/11 07:02:21;;;;;;;199.90;55.17;;;-0.90;99.90;;;;;;4998630;28;20315;-67
2021/01/11 07:04:48;;;;;;;176.63;51.33;;;-0.90;99.90;;;;;;5023681;28;20728;-68
2021/01/11 07:07:23;;;;;;;165.20;48.03;;;-0.90;99.90;;;;;;5020469;28;20248;-69
2021/01/11 07:09:52;;;;;;;161.43;47.63;;;-0.80;99.90;;;;;;5031732;28;20210;-68
2021/01/11 07:12:20;;;;;;;161.17;49.97;;;-0.80;99.90;;;;;;5041535;28;20730;-68
2021/01/11 07:14:58;;;;;;;144.77;45.10;;;-0.80;99.90;;;;;;5051693;28;20205;-68
2021/01/11 07:17:36;;;;;;;147.70;46.87;;;-0.70;99.90;;;;;;5051775;28;20250;-68
2021/01/11 07:20:04;;;;;;;130.47;41.30;;;-0.70;99.90;;;;;;5052188;28;20252;-68
2021/01/11 07:22:31;;;;;;;107.07;35.73;;;-0.70;99.90;;;;;;5051775;28;20300;-68
2021/01/11 07:24:58;;;;;;;112.10;37.70;;;-0.70;99.90;;;;;;5046900;28;20230;-68
2021/01/11 07:27:25;;;;;;;103.13;35.30;;;-0.70;99.90;;;;;;5028621;28;20198;-67
2021/01/11 07:29:57;;;;;;;93.00;32.43;;;-0.70;99.90;;;;;;5014786;28;20722;-67
2021/01/11 07:32:25;;;;;;;91.63;31.27;;;-0.70;99.90;;;;;;5025796;28;20201;-68
2021/01/11 07:34:59;;;;;;;90.97;30.50;;;-0.60;99.90;;;;;;5075582;28;20201;-68
2021/01/11 07:37:25;;;;;;;95.60;31.40;;;-0.60;99.90;;;;;;5075246;28;20653;-68
2021/01/11 07:39:52;;;;;;;84.00;29.67;;;-0.50;99.90;;;;;;5035336;28;20288;-68
2021/01/11 07:42:21;;;;;;;91.83;30.13;;;-0.50;99.90;;;;;;5035061;28;20210;-69
2021/01/11 07:44:47;;;;;;;98.97;34.33;;;-0.50;99.90;;;;;;5035655;28;20256;-68
2021/01/11 07:47:16;;;;;;;122.70;42.07;;;-0.40;99.90;;;;;;5035352;28;20592;-67
2021/01/11 07:49:44;;;;;;;101.67;36.30;;;-0.40;99.90;;;;;;5018659;28;20720;-68
2021/01/11 07:52:12;;;;;;;105.10;34.67;;;-0.40;99.90;;;;;;5035128;28;20209;-67
2021/01/11 07:54:39;;;;;;;109.93;37.87;;;-0.40;99.90;;;;;;4996235;28;20258;-67
2021/01/11 07:57:10;;;;;;;100.27;34.73;;;-0.30;99.90;;;;;;4995564;28;20211;-67
2021/01/11 07:59:38;;;;;;;95.93;33.83;;;-0.30;99.90;;;;;;4995657;28;20290;-67
2021/01/11 08:02:09;;;;;;;120.77;40.63;;;-0.30;99.90;;;;;;4995576;28;20199;-67
2021/01/11 08:04:37;;;;;;;109.03;37.00;;;-0.30;99.90;;;;;;4983519;28;20262;-67
2021/01/11 08:07:07;;;;;;;113.23;40.33;;;-0.20;99.90;;;;;;4975767;28;20544;-67
2021/01/11 08:09:36;;;;;;;116.70;37.43;;;-0.20;99.90;;;;;;4976227;28;20309;-67
2021/01/11 08:12:07;;;;;;;93.20;32.67;;;-0.10;99.90;;;;;;4968869;28;20655;-67
2021/01/11 08:14:34;;;;;;;121.97;38.30;;;-0.10;99.90;;;;;;4976298;28;20204;-67
2021/01/11 08:17:04;;;;;;;132.30;41.43;;;0.00;99.90;;;;;;4982548;28;20207;-67
2021/01/11 08:19:32;;;;;;;140.20;44.67;;;0.00;99.90;;;;;;4996008;28;20206;-67
2021/01/11 08:22:00;;;;;;;114.20;39.27;;;0.00;99.90;;;;;;4975744;28;20205;-68
2021/01/11 08:24:27;;;;;;;124.60;41.07;;;0.10;99.90;;;;;;4976006;28;20207;-68
2021/01/11 08:27:02;;;;;;;113.27;38.27;;;0.10;99.90;;;;;;4975946;28;20204;-68
2021/01/11 08:29:32;;;;;;;106.77;34.83;;;0.10;99.90;;;;;;4975699;28;20203;-68
2021/01/11 08:32:00;;;;;;;95.13;33.30;;;0.10;99.90;;;;;;4994849;28;20206;-68
2021/01/11 08:34:27;;;;;;;115.90;36.43;;;0.20;99.90;;;;;;4994725;28;20223;-68
2021/01/11 08:36:54;;;;;;;108.53;36.83;;;0.20;99.90;;;;;;4994663;28;20227;-69
2021/01/11 08:39:20;;;;;;;98.50;34.43;;;0.20;99.90;;;;;;5014491;28;20629;-68
2021/01/11 08:41:49;;;;;;;93.03;33.47;;;0.30;99.90;;;;;;4994924;28;20211;-68
2021/01/11 08:44:27;;;;;;;94.50;31.40;;;0.80;99.90;;;;;;4995120;28;20235;-68
2021/01/11 08:47:01;;;;;;;90.03;32.70;;;0.30;99.90;;;;;;4992915;28;20787;-68
2021/01/11 08:49:29;;;;;;;96.37;32.73;;;0.30;99.90;;;;;;4937568;29;20292;-68
2021/01/11 08:52:07;;;;;;;86.97;30.53;;;0.30;99.90;;;;;;4936841;29;20712;-68
2021/01/11 08:54:34;;;;;;;76.13;29.33;;;0.30;99.90;;;;;;4941972;28;20201;-68
2021/01/11 08:57:13;;;;;;;87.17;29.67;;;0.30;99.90;;;;;;4975135;28;20204;-69
2021/01/11 08:59:48;;;;;;;96.97;31.00;;;0.30;99.90;;;;;;5007021;28;20206;-68
2021/01/11 09:02:25;;;;;;;83.73;30.07;;;0.20;99.90;;;;;;5011033;28;20273;-68
2021/01/11 09:04:53;;;;;;;95.67;33.57;;;0.20;99.90;;;;;;4995060;28;20875;-68
2021/01/11 09:07:31;;;;;;;103.73;37.90;;;0.20;99.90;;;;;;5004528;28;20213;-68
2021/01/11 09:09:59;;;;;;;123.97;42.93;;;0.30;99.90;;;;;;5047023;28;20689;-69
2021/01/11 09:12:34;;;;;;;107.30;40.30;;;0.60;99.90;;;;;;5087440;28;20614;-68
2021/01/11 09:15:01;;;;;;;106.00;37.73;;;0.40;99.90;;;;;;5114491;28;20335;-68
2021/01/11 09:17:30;;;;;;;116.20;40.07;;;0.50;99.90;;;;;;5114787;28;20192;-66
2021/01/11 09:20:01;;;;;;;106.90;37.57;;;0.60;99.90;;;;;;5113940;28;20230;-68
2021/01/11 09:22:33;;;;;;;111.10;40.33;;;0.70;99.90;;;;;;5114716;28;20200;-68
2021/01/11 09:25:01;;;;;;;113.67;39.53;;;0.70;99.90;;;;;;5113922;28;20238;-68
2021/01/11 09:27:27;;;;;;;95.10;35.83;;;0.80;99.90;;;;;;5114171;28;20278;-68
2021/01/11 09:29:54;;;;;;;95.47;34.93;;;0.90;99.90;;;;;;5093786;28;20204;-68
2021/01/11 09:32:21;;;;;;;87.17;33.83;;;1.00;99.90;;;;;;5094375;28;20223;-68
2021/01/11 09:34:48;;;;;;;89.17;32.50;;;1.10;99.90;;;;;;5073184;28;20200;-68
2021/01/11 09:37:16;;;;;;;88.50;32.67;;;1.20;99.90;;;;;;5073331;28;20267;-68
2021/01/11 09:39:43;;;;;;;88.00;33.40;;;1.80;99.90;;;;;;5073493;28;20579;-68
2021/01/11 09:42:10;;;;;;;87.07;30.77;;;1.40;99.90;;;;;;5072895;28;20225;-68
2021/01/11 09:44:37;;;;;;;87.57;30.57;;;1.40;99.90;;;;;;5053309;28;20206;-68
2021/01/11 09:47:05;;;;;;;79.77;28.27;;;1.40;99.90;;;;;;5052878;28;20278;-68
2021/01/11 09:49:32;;;;;;;76.93;28.70;;;1.50;99.90;;;;;;5072883;28;20200;-68
2021/01/11 09:51:59;;;;;;;81.13;28.90;;;1.40;99.90;;;;;;5072103;28;20239;-68
2021/01/11 09:54:27;;;;;;;72.03;26.57;;;1.40;99.90;;;;;;5073367;28;20294;-68
2021/01/11 09:56:53;;;;;;;85.27;29.97;;;1.40;99.90;;;;;;5073122;28;20193;-67
2021/01/11 09:59:20;;;;;;;69.87;26.27;;;1.30;99.90;;;;;;5073266;28;20316;-68
2021/01/11 10:01:48;;;;;;;72.33;27.00;;;1.20;99.90;;;;;;5072626;28;20205;-67
2021/01/11 10:04:17;;;;;;;67.77;26.20;;;1.10;99.90;;;;;;5073230;28;20235;-67
2021/01/11 10:06:45;;;;;;;68.27;25.77;;;1.10;99.90;;;;;;5092778;28;20220;-68
2021/01/11 10:09:12;;;;;;;71.73;26.23;;;1.00;99.90;;;;;;5072872;28;20197;-67
2021/01/11 10:11:40;;;;;;;62.77;24.97;;;1.00;99.90;;;;;;5055728;28;20204;-67
2021/01/11 10:14:07;;;;;;;63.87;24.80;;;1.00;99.90;;;;;;5072619;28;20209;-68
2021/01/11 10:16:34;;;;;;;68.77;27.23;;;1.00;99.90;;;;;;5032769;28;20228;-68
2021/01/11 10:19:01;;;;;;;72.70;28.60;;;1.00;99.90;;;;;;5032396;28;20230;-68
2021/01/11 10:21:28;;;;;;;92.20;32.13;;;0.90;99.90;;;;;;4976361;28;20666;-68
2021/01/11 10:23:55;;;;;;;83.47;31.27;;;0.90;99.90;;;;;;4954184;28;20209;-68
2021/01/11 10:26:23;;;;;;;75.83;29.40;;;0.90;99.90;;;;;;4934804;29;20293;-68
2021/01/11 10:28:51;;;;;;;78.03;28.77;;;0.90;99.90;;;;;;4935333;29;20213;-68
2021/01/11 10:31:18;;;;;;;80.87;28.50;;;0.90;99.90;;;;;;4935069;29;20596;-67
2021/01/11 10:33:46;;;;;;;86.63;30.87;;;1.00;99.90;;;;;;4885778;29;20294;-69
2021/01/11 10:36:13;;;;;;;90.77;31.00;;;1.00;99.90;;;;;;4897062;29;20203;-68
2021/01/11 10:38:40;;;;;;;82.90;29.43;;;1.00;99.90;;;;;;4917848;29;20286;-67
2021/01/11 10:41:08;;;;;;;91.70;33.67;;;1.00;99.90;;;;;;4951449;29;20204;-67
2021/01/11 10:43:35;;;;;;;97.17;33.70;;;1.00;99.90;;;;;;4954289;29;20216;-68
2021/01/11 10:46:03;;;;;;;87.17;31.40;;;1.00;99.90;;;;;;4934436;29;20258;-67
2021/01/11 10:48:30;;;;;;;79.40;29.63;;;1.10;99.90;;;;;;4968533;28;20204;-68
2021/01/11 10:50:57;;;;;;;81.30;28.70;;;1.10;99.90;;;;;;4990926;28;20192;-68
2021/01/11 10:53:23;;;;;;;75.10;25.53;;;1.10;99.90;;;;;;5027083;28;20206;-68
2021/01/11 10:55:50;;;;;;;78.47;27.57;;;1.20;99.90;;;;;;4997786;28;20768;-67
2021/01/11 10:58:17;;;;;;;86.20;31.87;;;1.20;99.90;;;;;;5026537;28;20198;-67
2021/01/11 11:00:43;;;;;;;112.53;40.27;;;1.20;99.90;;;;;;5032556;28;20214;-68
2021/01/11 11:03:11;;;;;;;97.33;34.60;;;1.20;99.90;;;;;;5031414;28;20245;-68
2021/01/11 11:05:37;;;;;;;99.67;35.43;;;1.30;99.90;;;;;;5031367;28;20225;-71
2021/01/11 11:08:05;;;;;;;98.20;36.77;;;1.30;99.90;;;;;;5031694;28;20202;-69
2021/01/11 11:10:32;;;;;;;101.23;37.83;;;1.30;99.90;;;;;;5031991;28;20206;-67
2021/01/11 11:12:59;;;;;;;83.03;33.03;;;1.30;99.90;;;;;;5028623;28;20202;-69
2021/01/11 11:15:25;;;;;;;82.00;30.87;;;1.30;99.90;;;;;;5011790;28;20229;-69
2021/01/11 11:17:52;;;;;;;78.90;30.77;;;1.30;99.90;;;;;;5045114;28;20209;-68
2021/01/11 11:20:19;;;;;;;95.17;35.00;;;1.40;99.90;;;;;;5051248;28;20668;-68
2021/01/11 11:22:46;;;;;;;89.53;31.83;;;1.50;99.90;;;;;;5051378;28;20243;-69
2021/01/11 11:25:14;;;;;;;86.07;31.47;;;1.50;99.90;;;;;;5051984;28;20304;-68
2021/01/11 11:27:41;;;;;;;91.33;30.40;;;1.50;99.90;;;;;;5031462;28;20202;-67
2021/01/11 11:30:09;;;;;;;81.03;28.13;;;1.50;99.90;;;;;;5011589;28;20638;-68
2021/01/11 11:32:35;;;;;;;73.07;26.83;;;1.60;99.90;;;;;;5011760;28;20203;-68
2021/01/11 11:35:05;;;;;;;74.70;26.97;;;1.60;99.90;;;;;;5012397;28;20741;-68
2021/01/11 11:37:34;;;;;;;83.67;31.10;;;1.70;99.90;;;;;;5011345;28;20748;-68
2021/01/11 11:40:01;;;;;;;81.43;30.83;;;1.70;99.90;;;;;;5011591;28;20326;-68
2021/01/11 11:42:33;;;;;;;90.07;31.60;;;1.70;99.90;;;;;;4972674;28;20251;-67
2021/01/11 11:45:00;;;;;;;84.53;31.47;;;1.70;99.90;;;;;;4953202;29;20264;-69
2021/01/11 11:47:26;;;;;;;75.67;28.10;;;1.80;99.90;;;;;;4988547;28;20705;-68
2021/01/11 11:49:53;;;;;;;74.50;27.93;;;1.80;99.90;;;;;;4991915;28;20228;-70
2021/01/11 11:52:19;;;;;;;69.83;27.50;;;1.90;99.90;;;;;;4991796;28;20218;-69
2021/01/11 11:54:47;;;;;;;81.13;29.47;;;2.00;99.90;;;;;;4991923;28;20200;-68
2021/01/11 11:57:13;;;;;;;90.27;29.93;;;2.00;99.90;;;;;;4972330;28;20673;-68
2021/01/11 11:59:40;;;;;;;85.63;29.10;;;2.00;99.90;;;;;;4972496;28;20800;-69
2021/01/11 12:02:12;;;;;;;77.03;27.50;;;2.00;99.90;;;;;;4972375;28;20213;-68
2021/01/11 12:04:39;;;;;;;73.67;26.27;;;2.00;99.90;;;;;;4972656;28;20208;-67
2021/01/11 12:07:05;;;;;;;70.47;25.50;;;2.00;99.90;;;;;;4972197;28;20670;-67
2021/01/11 12:09:32;;;;;;;69.97;23.53;;;1.90;99.90;;;;;;4972870;28;20318;-69
2021/01/11 12:12:00;;;;;;;63.00;23.07;;;1.90;99.90;;;;;;4952861;28;20591;-68
2021/01/11 12:14:27;;;;;;;69.03;23.23;;;1.90;99.90;;;;;;4992274;28;20225;-70
2021/01/11 12:16:54;;;;;;;61.23;21.80;;;2.00;99.90;;;;;;4995191;28;20200;-69
2021/01/11 12:19:20;;;;;;;56.67;21.33;;;2.00;99.90;;;;;;4995556;28;20207;-68
2021/01/11 12:21:50;;;;;;;62.80;22.03;;;2.00;99.90;;;;;;4976284;28;20244;-69
2021/01/11 12:24:16;;;;;;;61.80;21.70;;;2.00;99.90;;;;;;4975892;28;20259;-68
2021/01/11 12:26:45;;;;;;;66.23;22.00;;;2.00;99.90;;;;;;4975501;28;20224;-68
2021/01/11 12:29:13;;;;;;;71.53;24.20;;;2.00;99.90;;;;;;4993680;28;20291;-69
2021/01/11 12:31:41;;;;;;;59.17;21.67;;;2.00;99.90;;;;;;4994838;28;20636;-68
2021/01/11 12:34:09;;;;;;;60.83;21.97;;;2.00;99.90;;;;;;4995021;28;20554;-68